sensor_id;sensor_type;location;lat;lon;timestamp;temperature;humidity
17639;DHT22;8938;53.546;9.954;2023-06-22T00:02:17;23.80;96.00
17639;DHT22;8938;53.546;9.954;2023-06-22T00:04:43;23.70;96.10
17639;DHT22;8938;53.546;9.954;2023-06-22T00:07:09;23.80;96.10
17639;DHT22;8938;53.546;9.954;2023-06-22T00:09:34;23.70;96.20
17639;DHT22;8938;53.546;9.954;2023-06-22T00:12:01;23.80;96.40
17639;DHT22;8938;53.546;9.954;2023-06-22T00:14:26;23.80;96.40
17639;DHT22;8938;53.546;9.954;2023-06-22T00:16:52;23.70;96.50
17639;DHT22;8938;53.546;9.954;2023-06-22T00:19:22;23.70;96.60
17639;DHT22;8938;53.546;9.954;2023-06-22T00:21:49;23.70;96.70
17639;DHT22;8938;53.546;9.954;2023-06-22T00:24:21;23.80;96.90
17639;DHT22;8938;53.546;9.954;2023-06-22T00:26:50;23.70;97.00
17639;DHT22;8938;53.546;9.954;2023-06-22T00:29:16;23.80;97.10
17639;DHT22;8938;53.546;9.954;2023-06-22T00:31:42;23.70;97.40
17639;DHT22;8938;53.546;9.954;2023-06-22T00:34:08;23.70;97.10
17639;DHT22;8938;53.546;9.954;2023-06-22T00:36:37;23.90;97.20
17639;DHT22;8938;53.546;9.954;2023-06-22T00:39:03;23.90;97.20
17639;DHT22;8938;53.546;9.954;2023-06-22T00:41:28;23.80;97.10
17639;DHT22;8938;53.546;9.954;2023-06-22T00:43:55;23.90;97.30
17639;DHT22;8938;53.546;9.954;2023-06-22T00:46:21;23.90;97.40
17639;DHT22;8938;53.546;9.954;2023-06-22T00:48:51;23.80;97.40
17639;DHT22;8938;53.546;9.954;2023-06-22T00:51:17;23.90;97.50
17639;DHT22;8938;53.546;9.954;2023-06-22T00:53:50;24.00;97.50
17639;DHT22;8938;53.546;9.954;2023-06-22T00:56:16;24.00;97.40
17639;DHT22;8938;53.546;9.954;2023-06-22T00:58:45;23.90;97.50
17639;DHT22;8938;53.546;9.954;2023-06-22T01:01:12;23.90;97.60
17639;DHT22;8938;53.546;9.954;2023-06-22T01:03:39;23.70;97.60
17639;DHT22;8938;53.546;9.954;2023-06-22T01:06:17;23.70;97.80
17639;DHT22;8938;53.546;9.954;2023-06-22T01:09:39;23.60;97.90
17639;DHT22;8938;53.546;9.954;2023-06-22T01:12:00;23.60;98.00
17639;DHT22;8938;53.546;9.954;2023-06-22T01:14:47;23.60;97.90
17639;DHT22;8938;53.546;9.954;2023-06-22T01:17:14;23.60;98.30
17639;DHT22;8938;53.546;9.954;2023-06-22T01:19:45;23.60;98.20
17639;DHT22;8938;53.546;9.954;2023-06-22T01:22:15;23.60;98.30
17639;DHT22;8938;53.546;9.954;2023-06-22T01:24:45;23.60;98.40
17639;DHT22;8938;53.546;9.954;2023-06-22T01:29:37;23.40;98.60
17639;DHT22;8938;53.546;9.954;2023-06-22T01:32:05;23.40;98.80
17639;DHT22;8938;53.546;9.954;2023-06-22T01:34:32;23.40;98.90
17639;DHT22;8938;53.546;9.954;2023-06-22T01:36:59;23.40;98.90
17639;DHT22;8938;53.546;9.954;2023-06-22T01:39:26;23.40;99.00
17639;DHT22;8938;53.546;9.954;2023-06-22T01:41:53;23.30;99.10
17639;DHT22;8938;53.546;9.954;2023-06-22T01:44:19;23.40;99.20
17639;DHT22;8938;53.546;9.954;2023-06-22T01:46:46;23.40;99.30
17639;DHT22;8938;53.546;9.954;2023-06-22T01:49:12;23.40;99.30
17639;DHT22;8938;53.546;9.954;2023-06-22T01:51:38;23.40;99.40
17639;DHT22;8938;53.546;9.954;2023-06-22T01:54:06;23.40;99.40
17639;DHT22;8938;53.546;9.954;2023-06-22T01:56:32;23.40;99.40
17639;DHT22;8938;53.546;9.954;2023-06-22T01:59:09;23.40;99.50
17639;DHT22;8938;53.546;9.954;2023-06-22T02:01:43;23.30;99.50
17639;DHT22;8938;53.546;9.954;2023-06-22T02:04:13;23.30;99.70
17639;DHT22;8938;53.546;9.954;2023-06-22T02:06:43;23.30;99.80
17639;DHT22;8938;53.546;9.954;2023-06-22T02:09:15;23.30;99.90
17639;DHT22;8938;53.546;9.954;2023-06-22T02:11:43;23.20;99.90
17639;DHT22;8938;53.546;9.954;2023-06-22T02:14:10;23.20;99.90
17639;DHT22;8938;53.546;9.954;2023-06-22T02:16:36;23.30;99.90
17639;DHT22;8938;53.546;9.954;2023-06-22T02:19:03;23.30;99.90
17639;DHT22;8938;53.546;9.954;2023-06-22T02:21:29;23.30;99.90
17639;DHT22;8938;53.546;9.954;2023-06-22T02:23:56;23.20;99.90
17639;DHT22;8938;53.546;9.954;2023-06-22T02:26:22;23.20;99.90
17639;DHT22;8938;53.546;9.954;2023-06-22T02:28:49;23.10;99.90
17639;DHT22;8938;53.546;9.954;2023-06-22T02:31:14;23.00;99.90
17639;DHT22;8938;53.546;9.954;2023-06-22T02:33:40;23.00;99.90
17639;DHT22;8938;53.546;9.954;2023-06-22T02:36:05;23.00;99.90
17639;DHT22;8938;53.546;9.954;2023-06-22T02:38:34;22.90;99.90
17639;DHT22;8938;53.546;9.954;2023-06-22T02:41:01;23.00;99.90
17639;DHT22;8938;53.546;9.954;2023-06-22T02:43:27;23.00;99.90
17639;DHT22;8938;53.546;9.954;2023-06-22T02:45:53;23.00;99.90
17639;DHT22;8938;53.546;9.954;2023-06-22T02:48:18;23.00;99.90
17639;DHT22;8938;53.546;9.954;2023-06-22T02:50:44;23.00;99.90
17639;DHT22;8938;53.546;9.954;2023-06-22T02:53:09;22.90;99.90
17639;DHT22;8938;53.546;9.954;2023-06-22T02:55:35;22.90;99.90
17639;DHT22;8938;53.546;9.954;2023-06-22T02:58:00;22.90;99.90
17639;DHT22;8938;53.546;9.954;2023-06-22T03:00:30;22.80;99.90
17639;DHT22;8938;53.546;9.954;2023-06-22T03:02:57;22.80;99.90
17639;DHT22;8938;53.546;9.954;2023-06-22T03:05:23;22.80;99.90
17639;DHT22;8938;53.546;9.954;2023-06-22T03:07:49;22.80;99.90
17639;DHT22;8938;53.546;9.954;2023-06-22T03:10:15;22.80;99.90
17639;DHT22;8938;53.546;9.954;2023-06-22T03:12:42;22.80;99.90
17639;DHT22;8938;53.546;9.954;2023-06-22T03:15:09;23.00;99.90
17639;DHT22;8938;53.546;9.954;2023-06-22T03:17:36;22.80;99.90
17639;DHT22;8938;53.546;9.954;2023-06-22T03:20:02;22.80;99.90
17639;DHT22;8938;53.546;9.954;2023-06-22T03:22:38;22.70;99.90
17639;DHT22;8938;53.546;9.954;2023-06-22T03:25:04;22.60;99.90
17639;DHT22;8938;53.546;9.954;2023-06-22T03:27:36;22.60;99.90
17639;DHT22;8938;53.546;9.954;2023-06-22T03:30:01;22.60;99.90
17639;DHT22;8938;53.546;9.954;2023-06-22T03:32:27;22.70;99.90
17639;DHT22;8938;53.546;9.954;2023-06-22T03:34:53;22.70;99.90
17639;DHT22;8938;53.546;9.954;2023-06-22T03:37:19;22.70;99.90
17639;DHT22;8938;53.546;9.954;2023-06-22T03:39:44;22.70;99.90
17639;DHT22;8938;53.546;9.954;2023-06-22T03:42:10;22.80;99.90
17639;DHT22;8938;53.546;9.954;2023-06-22T03:44:35;22.80;99.90
17639;DHT22;8938;53.546;9.954;2023-06-22T03:47:02;22.80;99.90
17639;DHT22;8938;53.546;9.954;2023-06-22T03:49:28;22.80;99.90
17639;DHT22;8938;53.546;9.954;2023-06-22T03:51:53;22.80;99.90
17639;DHT22;8938;53.546;9.954;2023-06-22T03:54:19;22.90;99.90
17639;DHT22;8938;53.546;9.954;2023-06-22T03:56:44;22.90;99.90
17639;DHT22;8938;53.546;9.954;2023-06-22T03:59:10;23.00;99.90
17639;DHT22;8938;53.546;9.954;2023-06-22T04:01:35;23.00;99.90
17639;DHT22;8938;53.546;9.954;2023-06-22T04:04:02;23.10;99.90
17639;DHT22;8938;53.546;9.954;2023-06-22T04:06:27;23.10;99.90
17639;DHT22;8938;53.546;9.954;2023-06-22T04:08:53;23.10;99.90
17639;DHT22;8938;53.546;9.954;2023-06-22T04:11:18;23.10;99.90
17639;DHT22;8938;53.546;9.954;2023-06-22T04:13:44;23.20;99.90
17639;DHT22;8938;53.546;9.954;2023-06-22T04:16:10;23.10;99.90
17639;DHT22;8938;53.546;9.954;2023-06-22T04:18:35;23.20;99.90
17639;DHT22;8938;53.546;9.954;2023-06-22T04:21:02;23.30;99.90
17639;DHT22;8938;53.546;9.954;2023-06-22T04:23:27;23.30;99.90
17639;DHT22;8938;53.546;9.954;2023-06-22T04:25:53;23.30;99.90
17639;DHT22;8938;53.546;9.954;2023-06-22T04:28:18;23.30;99.90
17639;DHT22;8938;53.546;9.954;2023-06-22T04:30:44;23.20;99.90
17639;DHT22;8938;53.546;9.954;2023-06-22T04:33:16;23.20;99.90
17639;DHT22;8938;53.546;9.954;2023-06-22T04:35:44;23.10;99.90
17639;DHT22;8938;53.546;9.954;2023-06-22T04:38:11;23.20;99.90
17639;DHT22;8938;53.546;9.954;2023-06-22T04:40:38;23.20;99.90
17639;DHT22;8938;53.546;9.954;2023-06-22T04:43:04;23.30;99.90
17639;DHT22;8938;53.546;9.954;2023-06-22T04:45:32;23.30;99.90
17639;DHT22;8938;53.546;9.954;2023-06-22T04:47:58;23.40;99.90
17639;DHT22;8938;53.546;9.954;2023-06-22T04:50:23;23.50;99.90
17639;DHT22;8938;53.546;9.954;2023-06-22T04:52:50;23.50;99.90
17639;DHT22;8938;53.546;9.954;2023-06-22T04:55:16;23.50;99.90
17639;DHT22;8938;53.546;9.954;2023-06-22T04:57:48;23.50;99.90
17639;DHT22;8938;53.546;9.954;2023-06-22T05:00:23;23.70;99.90
17639;DHT22;8938;53.546;9.954;2023-06-22T05:02:49;23.90;99.90
17639;DHT22;8938;53.546;9.954;2023-06-22T05:05:15;24.00;99.90
17639;DHT22;8938;53.546;9.954;2023-06-22T05:07:47;24.00;99.90
17639;DHT22;8938;53.546;9.954;2023-06-22T05:10:19;24.10;99.90
17639;DHT22;8938;53.546;9.954;2023-06-22T05:12:45;24.10;99.90
17639;DHT22;8938;53.546;9.954;2023-06-22T05:15:11;24.20;99.90
17639;DHT22;8938;53.546;9.954;2023-06-22T05:17:37;24.20;99.90
17639;DHT22;8938;53.546;9.954;2023-06-22T05:20:09;24.50;99.90
17639;DHT22;8938;53.546;9.954;2023-06-22T05:22:35;24.70;99.90
17639;DHT22;8938;53.546;9.954;2023-06-22T05:25:01;24.90;99.90
17639;DHT22;8938;53.546;9.954;2023-06-22T05:27:27;24.90;99.70
17639;DHT22;8938;53.546;9.954;2023-06-22T05:29:52;24.80;99.60
17639;DHT22;8938;53.546;9.954;2023-06-22T05:32:18;24.90;99.60
17639;DHT22;8938;53.546;9.954;2023-06-22T05:34:44;24.80;99.30
17639;DHT22;8938;53.546;9.954;2023-06-22T05:37:09;24.80;99.50
17639;DHT22;8938;53.546;9.954;2023-06-22T05:39:35;24.80;98.60
17639;DHT22;8938;53.546;9.954;2023-06-22T05:42:04;24.80;98.50
17639;DHT22;8938;53.546;9.954;2023-06-22T05:44:30;24.80;98.30
17639;DHT22;8938;53.546;9.954;2023-06-22T05:46:55;24.70;97.90
17639;DHT22;8938;53.546;9.954;2023-06-22T05:49:21;24.90;98.10
17639;DHT22;8938;53.546;9.954;2023-06-22T05:51:47;24.80;98.10
17639;DHT22;8938;53.546;9.954;2023-06-22T05:54:13;24.90;97.70
17639;DHT22;8938;53.546;9.954;2023-06-22T05:56:41;24.80;97.50
17639;DHT22;8938;53.546;9.954;2023-06-22T05:59:06;24.80;97.80
17639;DHT22;8938;53.546;9.954;2023-06-22T06:01:32;24.90;98.10
17639;DHT22;8938;53.546;9.954;2023-06-22T06:04:04;24.90;97.70
17639;DHT22;8938;53.546;9.954;2023-06-22T06:06:30;25.00;97.70
17639;DHT22;8938;53.546;9.954;2023-06-22T06:08:56;25.10;97.60
17639;DHT22;8938;53.546;9.954;2023-06-22T06:11:22;25.30;97.40
17639;DHT22;8938;53.546;9.954;2023-06-22T06:13:47;25.20;97.20
17639;DHT22;8938;53.546;9.954;2023-06-22T06:16:13;25.30;97.30
17639;DHT22;8938;53.546;9.954;2023-06-22T06:18:38;25.30;97.00
17639;DHT22;8938;53.546;9.954;2023-06-22T06:21:05;25.30;96.50
17639;DHT22;8938;53.546;9.954;2023-06-22T06:23:31;25.20;96.50
17639;DHT22;8938;53.546;9.954;2023-06-22T06:25:56;25.40;96.50
17639;DHT22;8938;53.546;9.954;2023-06-22T06:28:24;25.50;96.30
17639;DHT22;8938;53.546;9.954;2023-06-22T06:30:49;25.60;96.00
17639;DHT22;8938;53.546;9.954;2023-06-22T06:33:17;25.80;96.00
17639;DHT22;8938;53.546;9.954;2023-06-22T06:35:42;26.00;95.80
17639;DHT22;8938;53.546;9.954;2023-06-22T06:38:08;26.10;95.90
17639;DHT22;8938;53.546;9.954;2023-06-22T06:40:33;26.10;95.60
17639;DHT22;8938;53.546;9.954;2023-06-22T06:42:59;26.10;95.40
17639;DHT22;8938;53.546;9.954;2023-06-22T06:45:25;26.00;95.10
17639;DHT22;8938;53.546;9.954;2023-06-22T06:47:52;25.90;95.00
17639;DHT22;8938;53.546;9.954;2023-06-22T06:50:18;25.90;95.30
17639;DHT22;8938;53.546;9.954;2023-06-22T06:52:44;26.00;95.30
17639;DHT22;8938;53.546;9.954;2023-06-22T06:55:10;26.10;95.40
17639;DHT22;8938;53.546;9.954;2023-06-22T06:57:38;26.10;95.40
17639;DHT22;8938;53.546;9.954;2023-06-22T07:00:08;26.10;95.30
17639;DHT22;8938;53.546;9.954;2023-06-22T07:02:46;26.00;95.00
17639;DHT22;8938;53.546;9.954;2023-06-22T07:05:13;25.90;95.00
17639;DHT22;8938;53.546;9.954;2023-06-22T07:07:39;25.70;95.20
17639;DHT22;8938;53.546;9.954;2023-06-22T07:10:08;25.80;95.50
17639;DHT22;8938;53.546;9.954;2023-06-22T07:12:33;25.80;95.60
17639;DHT22;8938;53.546;9.954;2023-06-22T07:15:07;26.00;95.60
17639;DHT22;8938;53.546;9.954;2023-06-22T07:17:36;26.10;95.50
17639;DHT22;8938;53.546;9.954;2023-06-22T07:20:02;26.30;95.40
17639;DHT22;8938;53.546;9.954;2023-06-22T07:22:33;26.30;95.20
17639;DHT22;8938;53.546;9.954;2023-06-22T07:25:00;26.50;95.20
17639;DHT22;8938;53.546;9.954;2023-06-22T07:27:26;26.60;95.30
17639;DHT22;8938;53.546;9.954;2023-06-22T07:29:52;26.70;95.20
17639;DHT22;8938;53.546;9.954;2023-06-22T07:32:17;26.90;95.20
17639;DHT22;8938;53.546;9.954;2023-06-22T07:34:43;26.80;94.60
17639;DHT22;8938;53.546;9.954;2023-06-22T07:37:09;26.90;94.50
17639;DHT22;8938;53.546;9.954;2023-06-22T07:39:34;26.90;94.70
17639;DHT22;8938;53.546;9.954;2023-06-22T07:42:00;26.90;94.50
17639;DHT22;8938;53.546;9.954;2023-06-22T07:44:25;27.20;94.50
17639;DHT22;8938;53.546;9.954;2023-06-22T07:46:51;27.30;94.40
17639;DHT22;8938;53.546;9.954;2023-06-22T07:49:17;27.60;94.30
17639;DHT22;8938;53.546;9.954;2023-06-22T07:51:43;27.60;93.20
17639;DHT22;8938;53.546;9.954;2023-06-22T07:54:09;27.70;93.30
17639;DHT22;8938;53.546;9.954;2023-06-22T07:56:36;27.80;93.30
17639;DHT22;8938;53.546;9.954;2023-06-22T07:59:02;27.90;92.80
17639;DHT22;8938;53.546;9.954;2023-06-22T08:01:29;28.00;92.80
17639;DHT22;8938;53.546;9.954;2023-06-22T08:03:59;28.00;92.80
17639;DHT22;8938;53.546;9.954;2023-06-22T08:06:25;27.80;92.40
17639;DHT22;8938;53.546;9.954;2023-06-22T08:08:56;27.70;92.60
17639;DHT22;8938;53.546;9.954;2023-06-22T08:11:24;27.70;92.60
17639;DHT22;8938;53.546;9.954;2023-06-22T08:13:51;27.90;92.60
17639;DHT22;8938;53.546;9.954;2023-06-22T08:16:16;27.80;92.60
17639;DHT22;8938;53.546;9.954;2023-06-22T08:18:46;27.80;92.60
17639;DHT22;8938;53.546;9.954;2023-06-22T08:21:12;28.10;92.60
17639;DHT22;8938;53.546;9.954;2023-06-22T08:23:41;28.10;92.30
17639;DHT22;8938;53.546;9.954;2023-06-22T08:26:06;28.10;92.20
17639;DHT22;8938;53.546;9.954;2023-06-22T08:28:32;28.10;92.20
17639;DHT22;8938;53.546;9.954;2023-06-22T08:30:57;28.10;92.50
17639;DHT22;8938;53.546;9.954;2023-06-22T08:33:23;28.20;92.10
17639;DHT22;8938;53.546;9.954;2023-06-22T08:35:54;28.20;92.10
17639;DHT22;8938;53.546;9.954;2023-06-22T08:38:20;28.30;92.00
17639;DHT22;8938;53.546;9.954;2023-06-22T08:40:46;28.50;91.90
17639;DHT22;8938;53.546;9.954;2023-06-22T08:43:11;28.60;91.40
17639;DHT22;8938;53.546;9.954;2023-06-22T08:45:37;28.70;91.10
17639;DHT22;8938;53.546;9.954;2023-06-22T08:48:02;28.60;90.90
17639;DHT22;8938;53.546;9.954;2023-06-22T08:50:28;28.70;90.90
17639;DHT22;8938;53.546;9.954;2023-06-22T08:52:53;28.80;90.80
17639;DHT22;8938;53.546;9.954;2023-06-22T08:55:19;28.90;90.90
17639;DHT22;8938;53.546;9.954;2023-06-22T08:57:45;28.90;90.70
17639;DHT22;8938;53.546;9.954;2023-06-22T09:00:11;29.10;90.90
17639;DHT22;8938;53.546;9.954;2023-06-22T09:02:45;29.20;90.40
17639;DHT22;8938;53.546;9.954;2023-06-22T09:05:11;29.10;90.20
17639;DHT22;8938;53.546;9.954;2023-06-22T09:07:38;29.20;90.50
17639;DHT22;8938;53.546;9.954;2023-06-22T09:10:04;29.20;90.10
17639;DHT22;8938;53.546;9.954;2023-06-22T09:12:30;29.20;90.30
17639;DHT22;8938;53.546;9.954;2023-06-22T09:14:56;29.20;90.20
17639;DHT22;8938;53.546;9.954;2023-06-22T09:17:22;30.60;90.70
17639;DHT22;8938;53.546;9.954;2023-06-22T09:19:48;32.40;88.80
17639;DHT22;8938;53.546;9.954;2023-06-22T09:22:14;34.00;86.00
17639;DHT22;8938;53.546;9.954;2023-06-22T09:24:40;35.20;81.60
17639;DHT22;8938;53.546;9.954;2023-06-22T09:27:05;36.10;78.60
17639;DHT22;8938;53.546;9.954;2023-06-22T09:29:31;36.40;75.20
17639;DHT22;8938;53.546;9.954;2023-06-22T09:31:59;36.40;74.90
17639;DHT22;8938;53.546;9.954;2023-06-22T09:34:25;36.40;74.30
17639;DHT22;8938;53.546;9.954;2023-06-22T09:36:52;36.90;74.80
17639;DHT22;8938;53.546;9.954;2023-06-22T09:39:18;37.40;73.70
17639;DHT22;8938;53.546;9.954;2023-06-22T09:41:44;37.50;71.90
17639;DHT22;8938;53.546;9.954;2023-06-22T09:44:10;37.50;71.10
17639;DHT22;8938;53.546;9.954;2023-06-22T09:46:35;37.40;71.80
17639;DHT22;8938;53.546;9.954;2023-06-22T09:49:01;37.70;72.00
17639;DHT22;8938;53.546;9.954;2023-06-22T09:51:26;38.10;70.60
17639;DHT22;8938;53.546;9.954;2023-06-22T09:53:52;38.10;68.70
17639;DHT22;8938;53.546;9.954;2023-06-22T09:56:21;38.10;69.20
17639;DHT22;8938;53.546;9.954;2023-06-22T09:58:47;38.10;68.90
17639;DHT22;8938;53.546;9.954;2023-06-22T10:01:13;38.20;68.40
17639;DHT22;8938;53.546;9.954;2023-06-22T10:03:41;38.00;67.50
17639;DHT22;8938;53.546;9.954;2023-06-22T10:06:07;37.70;68.20
17639;DHT22;8938;53.546;9.954;2023-06-22T10:08:37;37.30;67.40
17639;DHT22;8938;53.546;9.954;2023-06-22T10:11:03;36.80;67.90
17639;DHT22;8938;53.546;9.954;2023-06-22T10:13:29;36.10;68.10
17639;DHT22;8938;53.546;9.954;2023-06-22T10:15:54;35.50;69.30
17639;DHT22;8938;53.546;9.954;2023-06-22T10:18:20;35.20;70.40
17639;DHT22;8938;53.546;9.954;2023-06-22T10:20:48;35.40;71.00
17639;DHT22;8938;53.546;9.954;2023-06-22T10:23:16;35.70;70.30
17639;DHT22;8938;53.546;9.954;2023-06-22T10:25:42;35.50;70.00
17639;DHT22;8938;53.546;9.954;2023-06-22T10:28:07;35.40;70.00
17639;DHT22;8938;53.546;9.954;2023-06-22T10:30:33;35.00;71.10
17639;DHT22;8938;53.546;9.954;2023-06-22T10:32:58;34.80;71.60
17639;DHT22;8938;53.546;9.954;2023-06-22T10:35:24;34.70;71.70
17639;DHT22;8938;53.546;9.954;2023-06-22T10:37:49;34.70;71.60
17639;DHT22;8938;53.546;9.954;2023-06-22T10:40:21;34.80;71.30
17639;DHT22;8938;53.546;9.954;2023-06-22T10:42:46;34.90;71.40
17639;DHT22;8938;53.546;9.954;2023-06-22T10:45:12;35.00;71.80
17639;DHT22;8938;53.546;9.954;2023-06-22T10:47:38;35.20;71.20
17639;DHT22;8938;53.546;9.954;2023-06-22T10:50:04;35.10;71.20
17639;DHT22;8938;53.546;9.954;2023-06-22T10:52:31;35.00;71.20
17639;DHT22;8938;53.546;9.954;2023-06-22T10:54:57;34.80;71.60
17639;DHT22;8938;53.546;9.954;2023-06-22T10:57:23;34.30;71.70
17639;DHT22;8938;53.546;9.954;2023-06-22T10:59:48;33.90;72.60
17639;DHT22;8938;53.546;9.954;2023-06-22T11:02:14;33.20;73.50
17639;DHT22;8938;53.546;9.954;2023-06-22T11:04:39;32.70;74.70
17639;DHT22;8938;53.546;9.954;2023-06-22T11:07:05;32.30;76.90
17639;DHT22;8938;53.546;9.954;2023-06-22T11:09:31;31.90;76.80
17639;DHT22;8938;53.546;9.954;2023-06-22T11:11:57;31.60;77.90
17639;DHT22;8938;53.546;9.954;2023-06-22T11:14:24;31.30;77.80
17639;DHT22;8938;53.546;9.954;2023-06-22T11:16:50;31.20;78.80
17639;DHT22;8938;53.546;9.954;2023-06-22T11:19:16;31.10;78.70
17639;DHT22;8938;53.546;9.954;2023-06-22T11:21:42;31.10;79.30
17639;DHT22;8938;53.546;9.954;2023-06-22T11:24:07;31.20;79.00
17639;DHT22;8938;53.546;9.954;2023-06-22T11:26:33;31.00;79.20
17639;DHT22;8938;53.546;9.954;2023-06-22T11:28:59;31.00;79.50
17639;DHT22;8938;53.546;9.954;2023-06-22T11:31:25;31.10;79.80
17639;DHT22;8938;53.546;9.954;2023-06-22T11:33:50;31.40;79.80
17639;DHT22;8938;53.546;9.954;2023-06-22T11:36:16;31.60;79.70
17639;DHT22;8938;53.546;9.954;2023-06-22T11:38:44;31.90;78.70
17639;DHT22;8938;53.546;9.954;2023-06-22T11:41:10;32.20;78.40
17639;DHT22;8938;53.546;9.954;2023-06-22T11:43:36;32.10;78.80
17639;DHT22;8938;53.546;9.954;2023-06-22T11:46:03;32.10;79.00
17639;DHT22;8938;53.546;9.954;2023-06-22T11:48:29;32.10;78.40
17639;DHT22;8938;53.546;9.954;2023-06-22T11:50:54;32.20;78.50
17639;DHT22;8938;53.546;9.954;2023-06-22T11:53:21;32.10;78.70
17639;DHT22;8938;53.546;9.954;2023-06-22T11:55:47;32.00;78.80
17639;DHT22;8938;53.546;9.954;2023-06-22T11:58:14;31.90;79.10
17639;DHT22;8938;53.546;9.954;2023-06-22T12:00:41;31.90;79.50
17639;DHT22;8938;53.546;9.954;2023-06-22T12:03:07;32.10;79.20
17639;DHT22;8938;53.546;9.954;2023-06-22T12:05:33;32.00;79.10
17639;DHT22;8938;53.546;9.954;2023-06-22T12:07:58;31.90;79.30
17639;DHT22;8938;53.546;9.954;2023-06-22T12:10:26;31.70;79.10
17639;DHT22;8938;53.546;9.954;2023-06-22T12:12:51;31.50;79.20
17639;DHT22;8938;53.546;9.954;2023-06-22T12:15:17;31.50;80.00
17639;DHT22;8938;53.546;9.954;2023-06-22T12:17:42;31.40;80.30
17639;DHT22;8938;53.546;9.954;2023-06-22T12:20:08;31.70;80.60
17639;DHT22;8938;53.546;9.954;2023-06-22T12:22:34;31.50;80.40
17639;DHT22;8938;53.546;9.954;2023-06-22T12:25:00;31.50;80.50
17639;DHT22;8938;53.546;9.954;2023-06-22T12:27:26;31.40;79.90
17639;DHT22;8938;53.546;9.954;2023-06-22T12:29:54;31.50;80.40
17639;DHT22;8938;53.546;9.954;2023-06-22T12:32:19;31.70;80.30
17639;DHT22;8938;53.546;9.954;2023-06-22T12:34:45;31.90;80.00
17639;DHT22;8938;53.546;9.954;2023-06-22T12:37:11;31.80;79.50
17639;DHT22;8938;53.546;9.954;2023-06-22T12:39:36;31.70;80.40
17639;DHT22;8938;53.546;9.954;2023-06-22T12:42:02;31.50;80.60
17639;DHT22;8938;53.546;9.954;2023-06-22T12:44:28;31.70;80.60
17639;DHT22;8938;53.546;9.954;2023-06-22T12:46:53;32.10;80.70
17639;DHT22;8938;53.546;9.954;2023-06-22T12:49:19;32.20;80.10
17639;DHT22;8938;53.546;9.954;2023-06-22T12:51:46;32.10;79.80
17639;DHT22;8938;53.546;9.954;2023-06-22T12:54:12;31.90;80.00
17639;DHT22;8938;53.546;9.954;2023-06-22T12:56:38;32.00;80.30
17639;DHT22;8938;53.546;9.954;2023-06-22T12:59:04;32.10;80.70
17639;DHT22;8938;53.546;9.954;2023-06-22T13:01:31;32.40;80.70
17639;DHT22;8938;53.546;9.954;2023-06-22T13:03:58;32.50;79.50
17639;DHT22;8938;53.546;9.954;2023-06-22T13:06:24;32.60;79.10
17639;DHT22;8938;53.546;9.954;2023-06-22T13:08:49;32.60;79.60
17639;DHT22;8938;53.546;9.954;2023-06-22T13:11:15;32.60;79.20
17639;DHT22;8938;53.546;9.954;2023-06-22T13:13:40;32.50;79.20
17639;DHT22;8938;53.546;9.954;2023-06-22T13:16:06;32.20;79.70
17639;DHT22;8938;53.546;9.954;2023-06-22T13:18:31;32.10;80.00
17639;DHT22;8938;53.546;9.954;2023-06-22T13:20:58;31.90;80.20
17639;DHT22;8938;53.546;9.954;2023-06-22T13:23:25;31.90;80.80
17639;DHT22;8938;53.546;9.954;2023-06-22T13:25:51;31.50;80.70
17639;DHT22;8938;53.546;9.954;2023-06-22T13:28:16;31.60;81.00
17639;DHT22;8938;53.546;9.954;2023-06-22T13:30:42;31.60;81.00
17639;DHT22;8938;53.546;9.954;2023-06-22T13:33:08;31.60;81.10
17639;DHT22;8938;53.546;9.954;2023-06-22T13:35:34;31.40;81.10
17639;DHT22;8938;53.546;9.954;2023-06-22T13:38:00;31.40;80.90
17639;DHT22;8938;53.546;9.954;2023-06-22T13:40:26;31.30;81.30
17639;DHT22;8938;53.546;9.954;2023-06-22T13:42:52;31.30;81.70
17639;DHT22;8938;53.546;9.954;2023-06-22T13:45:25;31.30;81.80
17639;DHT22;8938;53.546;9.954;2023-06-22T13:47:51;31.30;81.80
17639;DHT22;8938;53.546;9.954;2023-06-22T13:50:16;31.40;81.30
17639;DHT22;8938;53.546;9.954;2023-06-22T13:52:42;31.50;81.80
17639;DHT22;8938;53.546;9.954;2023-06-22T13:55:11;31.70;81.30
17639;DHT22;8938;53.546;9.954;2023-06-22T13:57:36;31.80;81.40
17639;DHT22;8938;53.546;9.954;2023-06-22T14:00:04;31.90;81.10
17639;DHT22;8938;53.546;9.954;2023-06-22T14:02:31;31.90;80.50
17639;DHT22;8938;53.546;9.954;2023-06-22T14:04:56;31.90;80.50
17639;DHT22;8938;53.546;9.954;2023-06-22T14:07:22;31.80;80.50
17639;DHT22;8938;53.546;9.954;2023-06-22T14:09:49;31.80;80.80
17639;DHT22;8938;53.546;9.954;2023-06-22T14:12:15;31.60;80.60
17639;DHT22;8938;53.546;9.954;2023-06-22T14:14:41;31.50;81.50
17639;DHT22;8938;53.546;9.954;2023-06-22T14:17:06;31.30;81.90
17639;DHT22;8938;53.546;9.954;2023-06-22T14:19:32;31.30;81.80
17639;DHT22;8938;53.546;9.954;2023-06-22T14:21:58;31.10;81.60
17639;DHT22;8938;53.546;9.954;2023-06-22T14:24:23;31.10;82.00
17639;DHT22;8938;53.546;9.954;2023-06-22T14:26:49;31.00;82.20
17639;DHT22;8938;53.546;9.954;2023-06-22T14:29:15;30.90;82.50
17639;DHT22;8938;53.546;9.954;2023-06-22T14:31:44;31.00;82.70
17639;DHT22;8938;53.546;9.954;2023-06-22T14:34:09;31.00;84.20
17639;DHT22;8938;53.546;9.954;2023-06-22T14:36:35;30.70;84.20
17639;DHT22;8938;53.546;9.954;2023-06-22T14:39:01;30.90;85.10
17639;DHT22;8938;53.546;9.954;2023-06-22T14:41:32;30.70;85.70
17639;DHT22;8938;53.546;9.954;2023-06-22T14:43:58;30.60;86.00
17639;DHT22;8938;53.546;9.954;2023-06-22T14:46:24;30.50;85.30
17639;DHT22;8938;53.546;9.954;2023-06-22T14:48:49;30.50;85.20
17639;DHT22;8938;53.546;9.954;2023-06-22T14:51:15;30.50;85.50
17639;DHT22;8938;53.546;9.954;2023-06-22T14:53:43;30.40;85.50
17639;DHT22;8938;53.546;9.954;2023-06-22T14:56:08;30.40;85.30
17639;DHT22;8938;53.546;9.954;2023-06-22T14:58:35;30.50;85.40
17639;DHT22;8938;53.546;9.954;2023-06-22T15:01:04;30.40;85.40
17639;DHT22;8938;53.546;9.954;2023-06-22T15:03:34;30.40;85.30
17639;DHT22;8938;53.546;9.954;2023-06-22T15:06:02;30.30;85.20
17639;DHT22;8938;53.546;9.954;2023-06-22T15:08:31;30.20;85.10
17639;DHT22;8938;53.546;9.954;2023-06-22T15:10:59;30.40;85.50
17639;DHT22;8938;53.546;9.954;2023-06-22T15:13:30;30.10;85.40
17639;DHT22;8938;53.546;9.954;2023-06-22T15:15:57;30.10;85.10
17639;DHT22;8938;53.546;9.954;2023-06-22T15:18:23;29.80;85.20
17639;DHT22;8938;53.546;9.954;2023-06-22T15:20:48;29.80;85.40
17639;DHT22;8938;53.546;9.954;2023-06-22T15:23:14;29.80;85.70
17639;DHT22;8938;53.546;9.954;2023-06-22T15:25:41;29.60;85.90
17639;DHT22;8938;53.546;9.954;2023-06-22T15:28:07;29.60;86.00
17639;DHT22;8938;53.546;9.954;2023-06-22T15:30:33;29.70;86.20
17639;DHT22;8938;53.546;9.954;2023-06-22T15:32:58;29.70;86.30
17639;DHT22;8938;53.546;9.954;2023-06-22T15:35:24;29.70;86.40
17639;DHT22;8938;53.546;9.954;2023-06-22T15:37:49;29.70;86.70
17639;DHT22;8938;53.546;9.954;2023-06-22T15:40:17;29.60;86.70
17639;DHT22;8938;53.546;9.954;2023-06-22T15:42:42;29.60;86.70
17639;DHT22;8938;53.546;9.954;2023-06-22T15:45:10;29.60;86.90